Current Weather

Yacuiba

Yacuiba, Bolivia (SLYA)

Report from: Tuesday, May 28, 2024 4:00 PM -04
Current time: Wednesday, May 29, 2024 3:57 AM -04

Nearby weather – Weather history – Daily summaries
Weather forecast

Temperature19.0°C (66.2°F)
Dew point8.0°C (46.4°F)
Winds 4 kts (2.1 m/s, 4.6 mph) North-Northeast (30°)
Visibility6.2 mi. (10 km)
Altimeter30.18 in.Hg (1022 mB)
Relative humidity49 %
Density altitude330 ft. (101 m)
Flight conditions Visual Meteorological Conditions
Raw dataSLYA 282000Z 03004KT 9999 NSC 19/08 Q1022
An error has occurred. This application may no longer respond until reloaded. Reload 🗙